createdAt,value
2018-03-02T04:02:11.980Z,-7.50
2018-03-02T04:04:41.078Z,-7.60
2018-03-02T04:07:10.155Z,-7.50
2018-03-02T04:09:38.493Z,-7.50
2018-03-02T04:12:06.812Z,-7.50
2018-03-02T04:14:35.157Z,-7.50
2018-03-02T04:17:03.475Z,-7.50
2018-03-02T04:19:32.570Z,-7.50
2018-03-02T04:22:01.658Z,-7.60
2018-03-02T04:24:29.994Z,-7.60
2018-03-02T04:26:58.300Z,-7.50
2018-03-02T04:29:26.628Z,-7.60
2018-03-02T04:31:54.957Z,-7.60
2018-03-02T04:34:23.299Z,-7.60
2018-03-02T04:36:51.613Z,-7.60
2018-03-02T04:39:19.954Z,-7.70
2018-03-02T04:41:48.265Z,-7.60
2018-03-02T04:44:16.609Z,-7.60
2018-03-02T04:46:44.925Z,-7.60
2018-03-02T04:49:13.260Z,-7.60
2018-03-02T04:51:41.572Z,-7.60
2018-03-02T04:54:09.955Z,-7.60
2018-03-02T04:56:38.264Z,-7.60
2018-03-02T04:59:07.365Z,-7.50
2018-03-02T05:01:36.437Z,-7.50
2018-03-02T05:04:04.780Z,-7.60
2018-03-02T05:06:33.096Z,-7.50
2018-03-02T05:09:01.406Z,-7.50
2018-03-02T05:11:29.728Z,-7.50
2018-03-02T05:13:58.041Z,-7.40
2018-03-02T05:16:27.140Z,-7.40
2018-03-02T05:18:56.216Z,-7.40
2018-03-02T05:21:24.545Z,-7.40
2018-03-02T05:23:52.860Z,-7.40
2018-03-02T05:26:21.199Z,-7.40
2018-03-02T05:28:49.516Z,-7.40
2018-03-02T05:31:17.844Z,-7.30
2018-03-02T05:33:46.161Z,-7.30
2018-03-02T05:36:14.492Z,-7.40
2018-03-02T05:38:42.808Z,-7.30
2018-03-02T05:41:11.136Z,-7.30
2018-03-02T05:43:40.211Z,-7.30
2018-03-02T05:46:08.539Z,-7.30
2018-03-02T05:48:36.862Z,-7.30
2018-03-02T05:51:05.197Z,-7.30
2018-03-02T05:53:33.503Z,-7.30
2018-03-02T05:56:01.846Z,-7.20
2018-03-02T05:58:30.157Z,-7.40
2018-03-02T06:00:58.516Z,-7.30
2018-03-02T06:03:26.825Z,-7.40
2018-03-02T06:05:55.134Z,-7.30
2018-03-02T06:08:24.233Z,-7.30
2018-03-02T06:10:53.303Z,-7.30
2018-03-02T06:13:22.404Z,-7.30
2018-03-02T06:15:50.716Z,-7.30
2018-03-02T06:18:19.049Z,-7.30
2018-03-02T06:20:48.143Z,-7.30
2018-03-02T06:23:16.488Z,-7.30
2018-03-02T06:25:44.812Z,-7.20
2018-03-02T06:28:14.025Z,-7.30
2018-03-02T06:30:43.105Z,-7.20
2018-03-02T06:33:12.320Z,-7.10
2018-03-02T06:35:41.400Z,-7.20
2018-03-02T06:38:10.504Z,-7.10
2018-03-02T06:40:39.576Z,-7.30
2018-03-02T06:43:07.917Z,-7.30
2018-03-02T06:45:36.304Z,-7.30
2018-03-02T06:48:04.631Z,-7.20
2018-03-02T06:50:33.708Z,-7.20
2018-03-02T06:53:02.042Z,-7.20
2018-03-02T06:55:30.359Z,-7.20
2018-03-02T06:57:58.688Z,-7.00
2018-03-02T07:00:27.000Z,-7.00
2018-03-02T07:02:55.342Z,-7.00
2018-03-02T07:05:23.654Z,-7.00
2018-03-02T07:07:51.988Z,-7.10
2018-03-02T07:10:20.301Z,-7.00
2018-03-02T07:12:48.612Z,-7.00
2018-03-02T07:15:16.948Z,-6.90
2018-03-02T07:17:45.256Z,-7.00
2018-03-02T07:20:13.594Z,-7.00
2018-03-02T07:22:41.901Z,-6.90
2018-03-02T07:25:10.239Z,-6.90
2018-03-02T07:27:38.556Z,-6.90
2018-03-02T07:30:06.888Z,-6.80
2018-03-02T07:32:35.195Z,-6.70
2018-03-02T07:35:03.529Z,-6.70
2018-03-02T07:37:32.620Z,-6.70
2018-03-02T07:40:01.716Z,-6.70
2018-03-02T07:42:30.793Z,-6.60
2018-03-02T07:44:59.123Z,-6.70
2018-03-02T07:47:27.432Z,-6.60
2018-03-02T07:49:55.773Z,-6.40
2018-03-02T07:52:24.084Z,-6.50
2018-03-02T07:54:52.419Z,-6.50
2018-03-02T07:57:20.737Z,-6.70
2018-03-02T07:59:49.695Z,-6.50
2018-03-02T08:02:18.007Z,-6.30
2018-03-02T08:04:46.323Z,-6.20
2018-03-02T08:07:15.428Z,-6.40
2018-03-02T08:09:43.765Z,-6.40
2018-03-02T08:12:12.105Z,-6.40
2018-03-02T08:14:40.416Z,-6.20
2018-03-02T08:17:08.753Z,-6.10
2018-03-02T08:19:37.064Z,-6.30
2018-03-02T08:22:05.401Z,-6.20
2018-03-02T08:24:33.709Z,-6.00
2018-03-02T08:27:02.050Z,-6.20
2018-03-02T08:29:31.124Z,-5.90
2018-03-02T08:31:59.464Z,-6.00
2018-03-02T08:34:27.771Z,-5.60
2018-03-02T08:36:56.112Z,-5.60
2018-03-02T08:39:24.424Z,-5.80
2018-03-02T08:41:52.759Z,-5.90
2018-03-02T08:44:21.079Z,-5.80
2018-03-02T08:46:49.420Z,-5.70
2018-03-02T08:49:17.733Z,-5.70
2018-03-02T08:51:46.043Z,-5.70
2018-03-02T08:54:14.381Z,-5.50
2018-03-02T08:56:42.700Z,-5.40
2018-03-02T08:59:11.799Z,-5.30
2018-03-02T09:01:40.117Z,-5.40
2018-03-02T09:04:09.224Z,-5.60
2018-03-02T09:06:38.308Z,-5.40
2018-03-02T09:09:06.660Z,-5.40
2018-03-02T09:11:34.976Z,-5.10
2018-03-02T09:14:03.315Z,-5.00
2018-03-02T09:16:31.636Z,-5.10
2018-03-02T09:18:59.972Z,-5.20
2018-03-02T09:21:28.293Z,-5.20
2018-03-02T09:23:56.645Z,-5.20
2018-03-02T09:26:24.969Z,-4.90
2018-03-02T09:28:54.087Z,-5.10
2018-03-02T09:31:22.421Z,-5.10
2018-03-02T09:33:50.764Z,-5.10
2018-03-02T09:36:19.077Z,-5.00
2018-03-02T09:38:47.418Z,-4.80
2018-03-02T09:41:15.728Z,-4.70
2018-03-02T09:43:44.075Z,-4.50
2018-03-02T09:46:12.397Z,-4.40
2018-03-02T09:48:40.728Z,-4.30
2018-03-02T09:51:09.048Z,-4.30
2018-03-02T09:53:37.384Z,-4.20
2018-03-02T09:56:05.709Z,-4.30
2018-03-02T09:58:34.828Z,-3.90
2018-03-02T10:01:03.914Z,-3.80
2018-03-02T10:03:33.019Z,-3.80
2018-03-02T10:06:02.100Z,-3.90
2018-03-02T10:08:31.207Z,-4.00
2018-03-02T10:11:00.288Z,-3.80
2018-03-02T10:13:29.400Z,-3.80
2018-03-02T10:15:57.745Z,-3.80
2018-03-02T10:18:26.063Z,-3.70
2018-03-02T10:20:54.405Z,-3.60
2018-03-02T10:23:22.728Z,-3.60
2018-03-02T10:25:51.084Z,-3.70
2018-03-02T10:28:20.182Z,-3.50
2018-03-02T10:30:49.292Z,-3.50
2018-03-02T10:33:17.623Z,-3.60
2018-03-02T10:35:45.968Z,-3.60
2018-03-02T10:38:14.286Z,-3.60
2018-03-02T10:40:42.621Z,-3.50
2018-03-02T10:43:10.950Z,-3.60
2018-03-02T10:45:39.292Z,-3.50
2018-03-02T10:48:07.603Z,-3.50
2018-03-02T10:50:35.947Z,-3.30
2018-03-02T10:53:04.264Z,-3.40
2018-03-02T10:55:33.380Z,-3.40
2018-03-02T10:58:02.465Z,-3.30
2018-03-02T11:00:37.164Z,-3.10
2018-03-02T11:03:05.485Z,-3.10
2018-03-02T11:05:39.444Z,-3.10
2018-03-02T11:08:07.764Z,-3.10
2018-03-02T11:10:36.877Z,-3.20
2018-03-02T11:13:05.205Z,-3.20
2018-03-02T11:15:33.556Z,-3.00
2018-03-02T11:18:01.876Z,-3.00
2018-03-02T11:20:30.219Z,-2.80
2018-03-02T11:22:58.559Z,-2.70
2018-03-02T11:25:26.904Z,-2.70
2018-03-02T11:27:55.234Z,-2.70
2018-03-02T11:30:23.600Z,-2.90
2018-03-02T11:32:51.938Z,-2.90
2018-03-02T11:35:20.258Z,-2.50
2018-03-02T11:37:48.599Z,-2.60
2018-03-02T11:40:16.914Z,-2.50
2018-03-02T11:42:45.251Z,-2.50
2018-03-02T11:45:13.576Z,-2.50
2018-03-02T11:47:41.924Z,-2.40
2018-03-02T11:50:11.016Z,-2.10
2018-03-02T11:52:40.169Z,-2.20
2018-03-02T11:55:08.464Z,-2.20
2018-03-02T11:57:36.808Z,-2.10
2018-03-02T12:00:05.588Z,-2.10
2018-03-02T12:02:33.934Z,-2.00
2018-03-02T12:05:02.305Z,-2.00
2018-03-02T12:07:30.622Z,-1.90
2018-03-02T12:09:58.957Z,-2.10
2018-03-02T12:12:27.266Z,-2.00
2018-03-02T12:14:55.611Z,-2.00
2018-03-02T12:17:24.717Z,-1.90
2018-03-02T12:19:53.064Z,-1.90
2018-03-02T12:22:21.401Z,-2.00
2018-03-02T12:24:49.744Z,-2.00
2018-03-02T12:27:18.056Z,-1.90
2018-03-02T12:29:46.396Z,-1.70
2018-03-02T12:32:14.716Z,-1.60
2018-03-02T12:34:43.053Z,-1.40
2018-03-02T12:37:11.365Z,-1.70
2018-03-02T12:39:40.464Z,-1.30
2018-03-02T12:42:08.780Z,-1.30
2018-03-02T12:44:37.117Z,-1.30
2018-03-02T12:47:05.465Z,-1.20
2018-03-02T12:49:37.341Z,-1.40
2018-03-02T12:52:06.439Z,-1.40
2018-03-02T12:54:35.535Z,-1.40
2018-03-02T12:57:04.627Z,-1.40
2018-03-02T12:59:33.719Z,-1.30
2018-03-02T13:02:02.817Z,-1.30
2018-03-02T13:04:31.909Z,-1.20
2018-03-02T13:07:00.300Z,-1.30
2018-03-02T13:09:29.380Z,-1.30
2018-03-02T13:11:57.711Z,-1.30
2018-03-02T13:14:26.032Z,-1.30
2018-03-02T13:16:54.382Z,-1.10
2018-03-02T13:19:22.711Z,-1.00
2018-03-02T13:21:51.060Z,-0.80
2018-03-02T13:24:20.154Z,-0.70
2018-03-02T13:27:00.300Z,-0.70
2018-03-02T13:29:28.624Z,-0.60
2018-03-02T13:31:56.953Z,-0.50
2018-03-02T13:34:38.616Z,-0.70
2018-03-02T13:37:06.960Z,-0.70
2018-03-02T13:39:47.791Z,-0.80
2018-03-02T13:42:16.145Z,-0.90
2018-03-02T13:44:44.469Z,-0.60
2018-03-02T13:47:12.804Z,-0.70
2018-03-02T13:49:53.137Z,-0.60
2018-03-02T13:52:21.473Z,-0.70
2018-03-02T13:54:49.776Z,-0.40
2018-03-02T13:57:30.608Z,-0.50
2018-03-02T13:59:58.922Z,-0.50
2018-03-02T14:02:39.844Z,-0.60
2018-03-02T14:05:08.148Z,-0.60
2018-03-02T14:07:36.484Z,-0.40
2018-03-02T14:10:04.797Z,-0.30
2018-03-02T14:12:33.140Z,-0.10
2018-03-02T14:15:01.470Z,-0.30
2018-03-02T14:17:30.595Z,-0.40
2018-03-02T14:19:59.664Z,-0.20
2018-03-02T14:22:28.005Z,-0.20
2018-03-02T14:24:57.955Z,0.10
2018-03-02T14:27:26.284Z,0.10
2018-03-02T14:29:54.588Z,0.10
2018-03-02T14:32:22.931Z,0.10
2018-03-02T14:34:51.256Z,0.00
2018-03-02T14:37:19.561Z,-0.20
2018-03-02T14:39:48.653Z,-0.10
2018-03-02T14:42:17.738Z,-0.20
2018-03-02T14:44:46.071Z,-0.20
2018-03-02T14:47:14.381Z,-0.30
2018-03-02T14:49:42.717Z,-0.30
2018-03-02T14:52:11.030Z,-0.30
2018-03-02T14:54:39.361Z,0.00
2018-03-02T14:57:07.676Z,-0.30
2018-03-02T14:59:36.017Z,-0.20
2018-03-02T15:02:04.334Z,-0.20
2018-03-02T15:04:32.670Z,-0.10
2018-03-02T15:07:00.980Z,-0.10
2018-03-02T15:09:29.320Z,-0.50
2018-03-02T15:11:57.647Z,-0.40
2018-03-02T15:14:25.976Z,-0.50
2018-03-02T15:16:54.300Z,-0.40
2018-03-02T15:19:22.634Z,-0.40
2018-03-02T15:21:50.972Z,-0.50
2018-03-02T15:24:19.309Z,-0.50
2018-03-02T15:26:47.627Z,-0.30
2018-03-02T15:29:15.988Z,-0.30
2018-03-02T15:31:44.305Z,-0.40
2018-03-02T15:34:13.388Z,-0.40
2018-03-02T15:36:41.728Z,-0.40
2018-03-02T15:39:10.053Z,-0.30
2018-03-02T15:41:39.165Z,-0.40
2018-03-02T15:44:07.477Z,-0.40
2018-03-02T15:46:35.819Z,-0.40
2018-03-02T15:49:04.896Z,-0.20
2018-03-02T15:51:33.994Z,-0.10
2018-03-02T15:54:02.309Z,-0.10
2018-03-02T15:56:30.661Z,-0.10
2018-03-02T15:58:59.744Z,-0.20
2018-03-02T16:01:28.845Z,-0.20
2018-03-02T16:03:57.933Z,-0.20
2018-03-02T16:06:27.085Z,-0.20
2018-03-02T16:08:55.373Z,-0.20
2018-03-02T16:11:23.729Z,-0.10
2018-03-02T16:13:52.040Z,-0.20
2018-03-02T16:16:20.358Z,-0.30
2018-03-02T16:18:48.698Z,-0.30
2018-03-02T16:21:17.268Z,-0.50
2018-03-02T16:23:45.612Z,-0.40
2018-03-02T16:26:13.944Z,-0.40
2018-03-02T16:28:42.284Z,-0.40
2018-03-02T16:31:10.631Z,-0.30
2018-03-02T16:33:39.710Z,-0.30
2018-03-02T16:36:08.807Z,-0.30
2018-03-02T16:38:37.937Z,-0.20
2018-03-02T16:41:07.021Z,-0.20
2018-03-02T16:43:35.357Z,-0.20
2018-03-02T16:46:03.700Z,-0.20
2018-03-02T16:48:32.012Z,-0.10
2018-03-02T16:51:00.375Z,-0.20
2018-03-02T16:53:28.701Z,-0.50
2018-03-02T16:55:57.052Z,-0.40
2018-03-02T16:58:25.369Z,-0.50
2018-03-02T17:00:53.722Z,-0.40
2018-03-02T17:06:22.740Z,-0.50
2018-03-02T17:08:51.813Z,-0.60
2018-03-02T17:11:20.148Z,-0.60
2018-03-02T17:13:48.461Z,-0.60
2018-03-02T17:16:16.796Z,-0.50
2018-03-02T17:18:45.116Z,-0.60
2018-03-02T17:21:13.453Z,-0.40
2018-03-02T17:23:41.773Z,-0.50
2018-03-02T17:26:10.105Z,-0.60
2018-03-02T17:28:38.420Z,-0.60
2018-03-02T17:31:06.756Z,-0.60
2018-03-02T17:33:35.085Z,-0.60
2018-03-02T17:36:03.404Z,-0.50
2018-03-02T17:38:31.749Z,-0.60
2018-03-02T17:41:00.074Z,-0.70
2018-03-02T17:43:28.409Z,-0.70
2018-03-02T17:45:56.725Z,-0.70
2018-03-02T17:48:25.067Z,-0.70
2018-03-02T17:50:53.416Z,-0.70
2018-03-02T17:53:21.757Z,-0.60
2018-03-02T17:55:50.070Z,-0.30
2018-03-02T17:58:18.407Z,-0.20
2018-03-02T18:00:47.480Z,-0.40
2018-03-02T18:03:15.820Z,-0.40
2018-03-02T18:05:44.225Z,-0.40
2018-03-02T18:08:12.525Z,-0.50
2018-03-02T18:10:42.685Z,-0.70
2018-03-02T18:13:11.024Z,-0.70
2018-03-02T18:15:40.103Z,-0.70
2018-03-02T18:18:08.442Z,-0.70
2018-03-02T18:20:36.753Z,-0.80
2018-03-02T18:23:05.096Z,-0.70
2018-03-02T18:25:33.407Z,-0.80
2018-03-02T18:28:01.759Z,-0.80
2018-03-02T18:30:30.080Z,-0.90
2018-03-02T18:32:58.407Z,-0.90
2018-03-02T18:35:26.720Z,-0.70
2018-03-02T18:37:55.057Z,-0.80
2018-03-02T18:40:23.374Z,-0.80
2018-03-02T18:42:51.715Z,-0.60
2018-03-02T18:45:20.029Z,-0.70
2018-03-02T18:47:48.376Z,-0.70
2018-03-02T18:50:16.693Z,-0.70
2018-03-02T18:52:45.029Z,-0.80
2018-03-02T18:55:13.345Z,-0.90
2018-03-02T19:00:41.573Z,-0.80
2018-03-02T19:03:09.926Z,-0.90
2018-03-02T19:05:38.245Z,-0.80
2018-03-02T19:08:06.589Z,-0.80
2018-03-02T19:10:35.666Z,-0.90
2018-03-02T19:13:04.000Z,-0.90
2018-03-02T19:15:32.328Z,-0.90
2018-03-02T19:18:00.669Z,-0.90
2018-03-02T19:20:28.976Z,-0.90
2018-03-02T19:22:57.323Z,-0.90
2018-03-02T19:25:25.641Z,-0.90
2018-03-02T19:27:53.987Z,-1.00
2018-03-02T19:30:22.305Z,-0.90
2018-03-02T19:32:51.384Z,-0.90
2018-03-02T19:35:19.724Z,-1.00
2018-03-02T19:37:48.040Z,-1.10
2018-03-02T19:40:16.380Z,-1.10
2018-03-02T19:42:44.694Z,-1.00
2018-03-02T19:45:13.040Z,-1.00
2018-03-02T19:47:41.352Z,-1.00
2018-03-02T19:50:09.688Z,-0.90
2018-03-02T19:52:38.038Z,-0.90
2018-03-02T19:55:07.143Z,-0.90
2018-03-02T19:57:35.460Z,-1.00
2018-03-02T20:00:03.788Z,-1.00
2018-03-02T20:02:32.108Z,-1.00
2018-03-02T20:05:00.449Z,-1.00
2018-03-02T20:07:28.782Z,-1.00
2018-03-02T20:09:57.117Z,-1.00
2018-03-02T20:12:25.424Z,-1.00
2018-03-02T20:14:53.755Z,-1.00
2018-03-02T20:17:22.068Z,-1.00
2018-03-02T20:19:50.419Z,-0.90
2018-03-02T20:28:19.871Z,-1.10
2018-03-02T20:30:48.209Z,-1.10
2018-03-02T20:33:17.298Z,-1.00
2018-03-02T20:35:45.640Z,-1.00
2018-03-02T20:38:13.974Z,-1.00
2018-03-02T20:40:42.333Z,-1.00
2018-03-02T20:43:10.644Z,-1.00
2018-03-02T20:45:38.987Z,-1.00
2018-03-02T20:48:07.350Z,-1.00
2018-03-02T20:50:35.660Z,-1.00
2018-03-02T20:53:04.757Z,-0.90
2018-03-02T20:55:33.861Z,-0.90
2018-03-02T20:58:02.945Z,-0.90
2018-03-02T21:00:32.051Z,-0.90
2018-03-02T21:03:01.134Z,-0.90
2018-03-02T21:05:30.242Z,-0.90
2018-03-02T21:07:59.320Z,-0.90
2018-03-02T21:10:28.449Z,-0.90
2018-03-02T21:12:57.547Z,-1.00
2018-03-02T21:15:25.865Z,-1.00
2018-03-02T21:17:54.210Z,-0.90
2018-03-02T21:20:22.521Z,-0.90
2018-03-02T21:22:50.872Z,-0.80
2018-03-02T21:25:19.188Z,-0.80
2018-03-02T21:27:47.520Z,-0.70
2018-03-02T21:30:15.841Z,-0.80
2018-03-02T21:32:44.172Z,-0.80
2018-03-02T21:35:12.488Z,-0.80
2018-03-02T21:37:40.824Z,-0.80
2018-03-02T21:40:09.144Z,-0.80
2018-03-02T21:42:38.485Z,-0.60
2018-03-02T21:45:07.573Z,-0.60
2018-03-02T21:47:36.680Z,-0.60
2018-03-02T21:50:05.761Z,-0.40
2018-03-02T21:52:34.101Z,-0.40
2018-03-02T21:55:02.421Z,-0.30
2018-03-02T21:57:31.528Z,-0.10
2018-03-02T22:00:00.612Z,-0.10
2018-03-02T22:02:29.720Z,-0.60
2018-03-02T22:04:58.813Z,-0.70
2018-03-02T22:07:27.924Z,-0.50
2018-03-02T22:09:56.236Z,-0.50
2018-03-02T22:12:24.577Z,-0.40
2018-03-02T22:14:52.891Z,-0.60
2018-03-02T22:17:21.206Z,-1.00
2018-03-02T22:19:49.544Z,-1.10
2018-03-02T22:22:17.856Z,-1.10
2018-03-02T22:24:46.192Z,-1.10
2018-03-02T22:27:14.504Z,-1.20
2018-03-02T22:29:42.848Z,-1.10
2018-03-02T22:32:11.164Z,-1.10
2018-03-02T22:37:40.060Z,-1.20
2018-03-02T22:40:08.392Z,-1.40
2018-03-02T22:42:36.703Z,-1.40
2018-03-02T22:45:05.180Z,-1.30
2018-03-02T22:47:33.655Z,-1.30
2018-03-02T22:50:02.004Z,-1.30
2018-03-02T22:52:30.317Z,-1.30
2018-03-02T22:54:58.668Z,-1.30
2018-03-02T22:57:26.996Z,-1.20
2018-03-02T22:59:55.310Z,-1.10
2018-03-02T23:02:24.409Z,-1.10
2018-03-02T23:04:53.495Z,-1.40
2018-03-02T23:07:22.607Z,-1.40
2018-03-02T23:09:50.916Z,-1.40
2018-03-02T23:12:19.252Z,-1.70
2018-03-02T23:14:48.328Z,-1.50
2018-03-02T23:17:16.664Z,-1.50
2018-03-02T23:19:44.983Z,-1.80
2018-03-02T23:22:13.336Z,-1.60
2018-03-02T23:24:41.649Z,-1.60
2018-03-02T23:27:10.759Z,-1.70
2018-03-02T23:29:39.842Z,-1.60
2018-03-02T23:32:08.953Z,-1.70
2018-03-02T23:34:37.284Z,-1.70
2018-03-02T23:37:05.627Z,-1.70
2018-03-02T23:39:33.944Z,-2.20
2018-03-02T23:42:02.284Z,-2.30
2018-03-02T23:44:30.606Z,-2.60
2018-03-02T23:46:58.948Z,-2.50
2018-03-02T23:49:27.289Z,-2.30
